createdAt,value
2023-05-11T00:01:34.708Z,1.58
2023-05-11T00:04:36.304Z,1.50
2023-05-11T00:07:37.856Z,2.03
2023-05-11T00:10:39.342Z,2.15
2023-05-11T00:13:40.895Z,1.92
2023-05-11T00:16:42.340Z,2.13
2023-05-11T00:19:43.824Z,1.50
2023-05-11T00:22:45.372Z,1.65
2023-05-11T00:25:46.892Z,1.63
2023-05-11T00:28:48.389Z,1.73
2023-05-11T00:31:50.265Z,1.42
2023-05-11T00:34:51.856Z,1.75
2023-05-11T00:37:53.494Z,1.45
2023-05-11T00:40:55.352Z,1.50
2023-05-11T00:43:57.834Z,1.75
2023-05-11T00:46:59.474Z,1.85
2023-05-11T00:50:01.164Z,1.60
2023-05-11T00:53:03.320Z,1.55
2023-05-11T00:56:04.923Z,1.90
2023-05-11T00:59:06.530Z,1.70
2023-05-11T01:02:08.165Z,1.50
2023-05-11T01:05:10.146Z,1.65
2023-05-11T01:08:22.294Z,1.65
2023-05-11T01:11:30.882Z,1.85
2023-05-11T01:14:48.542Z,2.15
2023-05-11T01:18:19.845Z,2.72
2023-05-11T01:21:22.026Z,2.65
2023-05-11T01:24:49.861Z,1.90
2023-05-11T01:28:04.698Z,2.00
2023-05-11T01:31:10.899Z,2.40
2023-05-11T01:34:17.985Z,1.95
2023-05-11T01:37:23.555Z,2.38
2023-05-11T01:40:29.169Z,2.20
2023-05-11T01:43:35.262Z,2.78
2023-05-11T01:46:38.093Z,3.55
2023-05-11T01:49:43.199Z,2.85
2023-05-11T01:52:47.476Z,2.88
2023-05-11T01:55:51.126Z,3.30
2023-05-11T01:58:54.951Z,3.10
2023-05-11T02:01:58.718Z,3.40
2023-05-11T02:05:01.823Z,3.08
2023-05-11T02:08:05.908Z,2.80
2023-05-11T02:14:11.674Z,3.10
2023-05-11T02:17:16.330Z,2.40
2023-05-11T02:20:20.100Z,2.67
2023-05-11T02:23:24.812Z,2.78
2023-05-11T02:26:26.350Z,2.33
2023-05-11T02:29:28.042Z,2.90
2023-05-11T02:32:33.153Z,3.10
2023-05-11T02:35:40.812Z,2.80
2023-05-11T02:38:45.502Z,2.80
2023-05-11T02:41:55.192Z,2.53
2023-05-11T02:45:07.277Z,3.15
2023-05-11T02:48:14.948Z,2.97
2023-05-11T02:51:19.089Z,2.85
2023-05-11T02:54:24.822Z,2.83
2023-05-11T03:00:32.259Z,2.42
2023-05-11T03:03:34.089Z,3.22
2023-05-11T03:06:36.970Z,2.30
2023-05-11T03:09:41.008Z,2.47
2023-05-11T03:12:43.327Z,2.42
2023-05-11T03:15:45.311Z,2.35
2023-05-11T03:18:49.051Z,2.85
2023-05-11T03:21:52.644Z,2.85
2023-05-11T03:24:54.395Z,2.40
2023-05-11T03:27:57.359Z,2.33
2023-05-11T03:30:59.100Z,3.00
2023-05-11T03:34:01.058Z,3.00
2023-05-11T03:37:11.396Z,2.58
2023-05-11T03:40:15.717Z,2.60
2023-05-11T03:43:30.312Z,2.67
2023-05-11T03:46:33.110Z,2.97
2023-05-11T03:49:37.782Z,2.60
2023-05-11T03:52:40.226Z,3.33
2023-05-11T03:55:42.411Z,3.08
2023-05-11T03:58:44.576Z,2.60
2023-05-11T04:01:46.070Z,2.92
2023-05-11T04:04:48.758Z,3.63
2023-05-11T04:07:51.047Z,2.80
2023-05-11T04:10:53.218Z,3.25
2023-05-11T04:13:54.701Z,2.95
2023-05-11T04:16:56.219Z,3.30
2023-05-11T04:19:57.740Z,2.50
2023-05-11T04:22:59.211Z,3.03
2023-05-11T04:26:00.734Z,3.30
2023-05-11T04:29:02.292Z,2.72
2023-05-11T04:32:04.013Z,2.83
2023-05-11T04:35:05.890Z,2.92
2023-05-11T04:38:10.619Z,3.08
2023-05-11T04:41:13.774Z,3.15
2023-05-11T04:44:15.591Z,2.90
2023-05-11T04:47:17.152Z,2.65
2023-05-11T04:50:20.815Z,3.05
2023-05-11T04:53:23.030Z,3.03
2023-05-11T04:56:24.835Z,3.10
2023-05-11T04:59:26.382Z,2.85
2023-05-11T05:02:27.936Z,2.95
2023-05-11T05:05:29.463Z,2.30
2023-05-11T05:08:31.203Z,3.10
2023-05-11T05:11:33.042Z,3.58
2023-05-11T05:14:34.643Z,2.67
2023-05-11T05:17:36.292Z,2.97
2023-05-11T05:20:38.032Z,3.10
2023-05-11T05:23:39.580Z,3.35
2023-05-11T05:26:41.198Z,3.20
2023-05-11T05:29:43.740Z,2.85
2023-05-11T05:32:45.652Z,3.28
2023-05-11T05:35:47.195Z,3.30
2023-05-11T05:38:50.757Z,3.83
2023-05-11T05:41:52.377Z,3.78
2023-05-11T05:44:54.514Z,4.60
2023-05-11T05:47:57.164Z,3.83
2023-05-11T05:51:00.216Z,3.15
2023-05-11T05:54:02.634Z,3.70
2023-05-11T05:57:04.907Z,3.78
2023-05-11T06:00:06.988Z,3.05
2023-05-11T06:03:14.321Z,3.45
2023-05-11T06:06:16.197Z,2.97
2023-05-11T06:09:17.932Z,3.33
2023-05-11T06:12:19.502Z,2.88
2023-05-11T06:15:23.299Z,3.17
2023-05-11T06:18:31.799Z,3.08
2023-05-11T06:21:34.786Z,2.97
2023-05-11T06:24:36.441Z,3.00
2023-05-11T06:27:39.006Z,2.92
2023-05-11T16:11:55.531Z,3.25
2023-05-11T16:14:57.510Z,3.33
2023-05-11T16:18:00.048Z,3.85
2023-05-11T16:21:04.114Z,3.47
2023-05-11T16:24:05.992Z,3.42
2023-05-11T16:27:07.578Z,3.67
2023-05-11T16:30:22.171Z,3.22
2023-05-11T16:33:25.749Z,3.80
2023-05-11T16:36:29.170Z,3.22
2023-05-11T16:39:30.639Z,3.05
2023-05-11T16:42:32.178Z,3.30
2023-05-11T16:45:33.861Z,3.15
2023-05-11T16:48:35.816Z,2.95
2023-05-11T16:51:37.324Z,2.90
2023-05-11T16:54:39.127Z,2.90
2023-05-11T16:57:40.634Z,2.42
2023-05-11T17:00:42.123Z,3.22
2023-05-11T17:03:43.599Z,4.05
2023-05-11T17:06:45.301Z,4.95
2023-05-11T17:09:46.794Z,4.70
2023-05-11T17:12:48.301Z,4.88
2023-05-11T17:15:51.412Z,3.40
2023-05-11T17:18:53.080Z,3.43
2023-05-11T17:21:54.661Z,3.88
2023-05-11T17:24:56.281Z,3.38
2023-05-11T17:27:58.054Z,2.83
2023-05-11T17:31:08.252Z,2.83
2023-05-11T17:34:10.228Z,2.47
2023-05-11T17:37:23.832Z,4.07
2023-05-11T17:40:32.469Z,3.30
2023-05-11T17:43:36.362Z,3.40
2023-05-11T17:46:38.306Z,3.42
2023-05-11T17:49:39.946Z,3.50
2023-05-11T17:52:41.940Z,3.30
2023-05-11T17:55:43.729Z,3.72
2023-05-11T17:58:45.475Z,3.88
2023-05-11T18:01:47.024Z,3.65
2023-05-11T18:04:48.636Z,6.05
2023-05-11T18:07:50.255Z,7.60
2023-05-11T18:10:51.730Z,8.25
2023-05-11T18:13:53.827Z,7.25
2023-05-11T18:16:56.203Z,5.72
2023-05-11T18:19:57.761Z,5.63
2023-05-11T18:22:59.476Z,5.50
2023-05-11T18:26:00.985Z,4.90
2023-05-11T18:29:02.515Z,4.82
2023-05-11T18:32:04.261Z,4.65
2023-05-11T18:35:06.132Z,6.53
2023-05-11T18:38:07.899Z,6.05
2023-05-11T18:41:09.482Z,5.30
2023-05-11T18:44:11.231Z,5.18
2023-05-11T18:47:12.830Z,5.15
2023-05-11T18:50:14.664Z,5.60
2023-05-11T18:53:16.135Z,5.25
2023-05-11T18:56:17.877Z,5.80
2023-05-11T18:59:19.423Z,5.70
2023-05-11T19:02:21.008Z,5.97
2023-05-11T19:05:22.537Z,5.57
2023-05-11T19:08:24.028Z,4.93
2023-05-11T19:11:25.606Z,4.88
2023-05-11T19:14:27.090Z,4.60
2023-05-11T19:17:28.643Z,5.00
2023-05-11T19:20:30.078Z,4.60
2023-05-11T19:23:32.176Z,4.85
2023-05-11T19:26:33.748Z,4.50
2023-05-11T19:29:35.514Z,4.72
2023-05-11T19:32:37.358Z,4.10
2023-05-11T19:35:38.862Z,4.20
2023-05-11T19:38:40.365Z,5.45
2023-05-11T19:41:41.821Z,5.55
2023-05-11T19:44:43.761Z,5.32
2023-05-11T19:47:45.384Z,7.68
2023-05-11T19:50:47.114Z,5.90
2023-05-11T19:53:48.692Z,4.55
2023-05-11T19:56:50.157Z,4.55
2023-05-11T19:59:51.804Z,3.90
2023-05-11T20:02:54.133Z,4.22
2023-05-11T20:05:55.798Z,3.90
2023-05-11T20:08:57.283Z,4.45
2023-05-11T20:11:58.772Z,4.30
2023-05-11T20:15:00.804Z,4.05
2023-05-11T20:18:03.008Z,4.30
2023-05-11T20:21:04.677Z,4.40
2023-05-11T20:24:06.443Z,3.95
2023-05-11T20:27:09.647Z,4.40
2023-05-11T20:30:11.890Z,4.40
2023-05-11T20:36:17.881Z,4.60
2023-05-11T20:39:21.770Z,4.18
2023-05-11T20:42:23.415Z,4.53
2023-05-11T20:45:25.077Z,3.95
2023-05-11T20:48:39.090Z,4.32
2023-05-11T20:51:42.246Z,4.35
2023-05-11T20:54:43.849Z,4.70
2023-05-11T20:57:45.327Z,4.40
2023-05-11T21:00:46.843Z,4.18
2023-05-11T21:03:48.365Z,3.78
2023-05-11T21:06:50.308Z,4.63
2023-05-11T21:09:51.745Z,4.45
2023-05-11T21:12:53.227Z,4.53
2023-05-11T21:15:54.819Z,4.32
2023-05-11T21:18:56.396Z,4.30
2023-05-11T21:21:57.993Z,4.25
2023-05-11T21:24:59.631Z,4.78
2023-05-11T21:28:01.164Z,4.57
2023-05-11T21:31:05.876Z,3.80
2023-05-11T21:34:07.660Z,4.15
2023-05-11T21:37:09.277Z,4.40
2023-05-11T21:40:12.033Z,4.55
2023-05-11T21:43:14.162Z,3.95
2023-05-11T21:46:15.766Z,6.07
2023-05-11T21:49:17.463Z,4.15
2023-05-11T21:52:19.021Z,4.60
2023-05-11T21:55:20.611Z,5.32
2023-05-11T21:58:22.086Z,4.85
2023-05-11T22:01:23.861Z,4.78
2023-05-11T22:04:27.082Z,4.22
2023-05-11T22:07:28.561Z,4.70
2023-05-11T22:10:30.030Z,4.35
2023-05-11T22:13:31.488Z,4.63
2023-05-11T22:16:33.110Z,4.47
2023-05-11T22:19:34.639Z,4.47
2023-05-11T22:22:36.861Z,4.30
2023-05-11T22:25:38.604Z,4.15
2023-05-11T22:28:40.077Z,4.43
2023-05-11T22:31:43.391Z,4.00
2023-05-11T22:34:46.705Z,4.72
2023-05-11T22:37:48.435Z,3.92
2023-05-11T22:40:50.025Z,4.78
2023-05-11T22:43:51.830Z,4.50
2023-05-11T22:46:55.181Z,4.40
2023-05-11T22:49:56.775Z,4.15
2023-05-11T22:52:58.268Z,4.13
2023-05-11T22:56:07.509Z,4.20
2023-05-11T22:59:09.075Z,4.15
2023-05-11T23:02:10.584Z,4.70
2023-05-11T23:05:12.453Z,4.45
2023-05-11T23:08:14.438Z,4.32
2023-05-11T23:11:15.943Z,4.35
2023-05-11T23:14:17.494Z,4.25
2023-05-11T23:17:19.487Z,4.85
2023-05-11T23:20:21.352Z,4.88
2023-05-11T23:23:23.732Z,5.07
2023-05-11T23:26:25.153Z,4.47
2023-05-11T23:29:27.923Z,4.50
2023-05-11T23:32:29.472Z,4.60
2023-05-11T23:35:31.172Z,4.32
2023-05-11T23:38:32.784Z,4.30
2023-05-11T23:41:34.402Z,4.40
2023-05-11T23:44:36.350Z,4.70
2023-05-11T23:47:37.932Z,4.10
2023-05-11T23:50:39.599Z,4.68
2023-05-11T23:53:41.177Z,4.32
2023-05-11T23:56:44.185Z,3.90
2023-05-11T23:59:45.633Z,3.97
